Time;durP1;ratioP1;P1;durP2;ratioP2;P2;SDS_P1;SDS_P2;PMS_P1;PMS_P2;Temp;Humidity;BMP_temperature;BMP_pressure;BME280_temperature;BME280_humidity;BME280_pressure;Samples;Min_cycle;Max_cycle;Signal;HPM_P1;HPM_P2
2022/12/21 00:01:40;;;;;;;204.95;50.25;;;;;;;8.65;100.00;100962.69;4993393;28;20050;-73
2022/12/21 00:04:05;;;;;;;194.52;48.60;;;;;;;8.63;100.00;100957.44;5013606;28;20131;-73
2022/12/21 00:06:36;;;;;;;183.68;47.83;;;;;;;8.64;100.00;100963.66;4998153;28;20120;-74
2022/12/21 00:09:04;;;;;;;180.27;49.35;;;;;;;8.62;100.00;100969.03;5013723;28;20144;-73
2022/12/21 00:11:31;;;;;;;202.55;48.85;;;;;;;8.63;100.00;100976.06;4993956;28;20455;-72
2022/12/21 00:13:58;;;;;;;195.57;46.42;;;;;;;8.59;100.00;100971.00;4993336;28;20062;-73
2022/12/21 00:16:26;;;;;;;180.32;46.85;;;;;;;8.62;100.00;100974.34;4992264;28;20521;-73
2022/12/21 00:18:52;;;;;;;182.02;47.28;;;;;;;8.62;100.00;100968.16;4993174;28;20058;-73
2022/12/21 00:21:23;;;;;;;170.25;47.03;;;;;;;8.59;100.00;100973.66;4992388;28;20065;-73
2022/12/21 00:23:50;;;;;;;191.93;48.50;;;;;;;8.59;100.00;100971.00;4994154;28;20106;-74
2022/12/21 00:26:19;;;;;;;183.07;46.35;;;;;;;8.61;100.00;100966.47;4998838;28;20048;-73
2022/12/21 00:28:46;;;;;;;191.88;50.50;;;;;;;8.61;100.00;100975.28;4981941;28;20897;-73
2022/12/21 00:31:23;;;;;;;197.65;51.47;;;;;;;8.59;100.00;100978.97;4995653;28;20091;-73
2022/12/21 00:33:52;;;;;;;181.88;47.55;;;;;;;8.57;100.00;100971.06;4999700;28;20069;-73
2022/12/21 00:36:19;;;;;;;236.63;52.55;;;;;;;8.55;100.00;100971.16;4994618;28;20042;-72
2022/12/21 00:38:46;;;;;;;216.30;49.80;;;;;;;8.52;100.00;100978.44;4991478;28;20054;-72
2022/12/21 00:41:14;;;;;;;231.50;51.80;;;;;;;8.54;100.00;100974.75;4965175;28;20058;-73
2022/12/21 00:43:41;;;;;;;231.73;52.58;;;;;;;8.57;100.00;100971.06;5008737;28;20057;-73
2022/12/21 00:46:06;;;;;;;225.43;54.15;;;;;;;8.46;100.00;100963.66;4991750;28;20053;-73
2022/12/21 00:48:34;;;;;;;224.15;53.35;;;;;;;8.47;100.00;100965.38;4992379;28;20086;-73
2022/12/21 00:51:08;;;;;;;209.15;52.97;;;;;;;8.45;100.00;100961.94;4991764;28;20069;-72
2022/12/21 00:53:34;;;;;;;207.70;51.88;;;;;;;8.47;100.00;100972.50;4982826;28;20042;-73
2022/12/21 00:56:03;;;;;;;247.05;54.03;;;;;;;8.46;100.00;100968.97;4982345;28;20811;-72
2022/12/21 00:58:29;;;;;;;242.38;52.72;;;;;;;8.36;100.00;100961.53;4992757;28;20042;-73
2022/12/21 01:00:58;;;;;;;249.65;54.97;;;;;;;8.41;100.00;100965.72;5010475;28;20034;-73
2022/12/21 01:03:25;;;;;;;235.60;55.00;;;;;;;8.37;100.00;100974.78;4971718;28;20117;-73
2022/12/21 01:05:53;;;;;;;262.48;57.25;;;;;;;8.45;100.00;100969.94;4980631;28;20057;-73
2022/12/21 01:08:19;;;;;;;241.65;54.97;;;;;;;8.44;100.00;100968.22;4979298;28;20570;-73
2022/12/21 01:10:45;;;;;;;257.85;56.45;;;;;;;8.43;100.00;100981.56;4994812;28;20112;-73
2022/12/21 01:13:12;;;;;;;231.50;53.63;;;;;;;8.42;100.00;100994.00;4992631;28;20748;-73
2022/12/21 01:15:46;;;;;;;244.35;55.50;;;;;;;8.43;100.00;100994.84;4989817;28;20057;-73
2022/12/21 01:18:13;;;;;;;268.23;56.17;;;;;;;8.35;100.00;100997.88;4992992;28;20046;-72
2022/12/21 01:20:41;;;;;;;235.35;55.67;;;;;;;8.42;100.00;100987.81;5013215;28;20042;-72
2022/12/21 01:23:07;;;;;;;252.10;55.40;;;;;;;8.37;100.00;100995.16;4980448;28;20049;-73
2022/12/21 01:25:32;;;;;;;267.65;58.15;;;;;;;8.37;100.00;100992.50;4980538;28;20462;-74
2022/12/21 01:27:59;;;;;;;296.02;59.83;;;;;;;8.31;100.00;101009.59;4994107;28;20082;-73
2022/12/21 01:30:25;;;;;;;284.48;58.92;;;;;;;8.32;100.00;101006.00;4991594;28;20050;-73
2022/12/21 01:32:50;;;;;;;335.70;62.13;;;;;;;8.29;100.00;101012.34;4982108;28;20408;-73
2022/12/21 01:35:17;;;;;;;318.02;61.53;;;;;;;8.28;100.00;101013.28;4981824;28;20721;-73
2022/12/21 01:37:42;;;;;;;275.58;57.22;;;;;;;8.28;100.00;101015.94;4994714;28;20123;-73
2022/12/21 01:40:08;;;;;;;300.85;59.92;;;;;;;8.20;100.00;101011.94;4980378;28;20073;-73
2022/12/21 01:42:34;;;;;;;271.88;59.22;;;;;;;8.24;100.00;101009.06;4980067;28;20046;-73
2022/12/21 01:45:06;;;;;;;339.98;60.60;;;;;;;8.05;100.00;101010.94;4992843;28;20462;-72
2022/12/21 01:47:47;;;;;;;304.05;62.03;;;;;;;8.12;100.00;101009.66;5000449;28;20647;-73
2022/12/21 01:50:24;;;;;;;318.85;61.13;;;;;;;8.13;100.00;101007.88;4982021;28;20033;-73
2022/12/21 01:52:52;;;;;;;320.83;60.83;;;;;;;8.13;100.00;101016.69;4979216;28;20509;-73
2022/12/21 01:55:17;;;;;;;275.17;57.35;;;;;;;8.15;100.00;101006.88;4994944;28;20625;-73
2022/12/21 01:57:45;;;;;;;326.88;61.58;;;;;;;8.05;100.00;101008.28;5001616;28;20053;-73
2022/12/21 02:00:11;;;;;;;310.73;59.20;;;;;;;8.04;100.00;101014.53;4978664;28;20049;-72
2022/12/21 02:02:48;;;;;;;352.02;64.68;;;;;;;8.09;100.00;101015.16;5005030;28;20049;-73
2022/12/21 02:05:34;;;;;;;336.95;60.60;;;;;;;8.06;100.00;101020.59;4992120;28;20088;-73
2022/12/21 02:08:03;;;;;;;301.02;59.78;;;;;;;8.01;100.00;101012.00;4995435;28;20569;-73
2022/12/21 02:10:29;;;;;;;367.40;64.65;;;;;;;7.95;100.00;101012.31;4976377;28;20604;-72
2022/12/21 02:13:01;;;;;;;309.33;58.90;;;;;;;8.01;100.00;101009.34;4978574;28;20057;-72
2022/12/21 02:15:55;;;;;;;290.80;57.70;;;;;;;8.13;100.00;101015.84;4982590;28;20046;-73
2022/12/21 02:18:54;;;;;;;283.95;58.80;;;;;;;8.09;100.00;101015.16;4954677;28;20047;-73
2022/12/21 02:21:23;;;;;;;287.63;56.45;;;;;;;8.13;100.00;101007.88;4953926;28;20185;-73
2022/12/21 02:24:00;;;;;;;286.98;57.15;;;;;;;8.05;100.00;101002.97;4937246;28;20050;-73
2022/12/21 02:26:50;;;;;;;278.20;57.80;;;;;;;8.07;100.00;100995.75;4951681;28;20086;-74
2022/12/21 02:29:18;;;;;;;293.27;57.33;;;;;;;8.11;100.00;100991.16;4938093;28;20080;-73
2022/12/21 02:32:13;;;;;;;340.45;59.55;;;;;;;8.03;100.00;100987.13;4953944;28;20385;-73
2022/12/21 02:35:15;;;;;;;296.02;57.08;;;;;;;8.00;100.00;100984.59;4939009;28;20118;-72
2022/12/21 02:37:51;;;;;;;282.20;53.13;;;;;;;7.91;100.00;100985.06;4952735;28;20086;-73
2022/12/21 02:40:20;;;;;;;274.02;54.60;;;;;;;7.95;100.00;100991.94;4937209;28;20047;-72
2022/12/21 02:45:51;;;;;;;396.10;60.97;;;;;;;7.75;100.00;100994.72;4938793;28;20061;-73
2022/12/21 02:48:24;;;;;;;442.63;65.80;;;;;;;7.58;100.00;100989.38;4955358;28;20153;-74
2022/12/21 02:50:55;;;;;;;385.55;60.45;;;;;;;7.53;100.00;100993.13;4954879;28;20050;-73
2022/12/21 02:53:30;;;;;;;516.95;70.07;;;;;;;7.46;100.00;100986.38;4953407;28;20081;-73
2022/12/21 02:55:56;;;;;;;659.03;82.25;;;;;;;7.42;100.00;100982.13;4980906;28;20054;-73
2022/12/21 02:58:23;;;;;;;473.52;68.68;;;;;;;7.34;100.00;100986.97;4981941;28;20046;-72
2022/12/21 03:00:52;;;;;;;578.05;68.13;;;;;;;7.34;100.00;100983.47;4966662;28;20042;-73
2022/12/21 03:03:48;;;;;;;270.08;52.58;;;;;;;7.33;100.00;100985.25;4990102;28;20073;-73
2022/12/21 03:06:51;;;;;;;350.60;58.13;;;;;;;7.32;100.00;100991.47;4999785;28;20052;-73
2022/12/21 03:09:20;;;;;;;292.33;53.00;;;;;;;7.36;100.00;100987.75;4991706;28;20054;-74
2022/12/21 03:11:59;;;;;;;463.83;62.67;;;;;;;7.33;100.00;100979.97;4992059;28;20069;-73
2022/12/21 03:14:37;;;;;;;533.50;67.57;;;;;;;7.27;100.00;100974.91;4990973;28;20145;-72
2022/12/21 03:17:35;;;;;;;214.85;46.03;;;;;;;7.35;100.00;100985.19;4994694;28;20050;-73
2022/12/21 03:20:27;;;;;;;271.25;54.80;;;;;;;7.46;100.00;100989.03;4975612;28;20552;-73
2022/12/21 03:23:15;;;;;;;284.35;54.47;;;;;;;7.41;100.00;100983.09;5014348;28;20309;-73
2022/12/21 03:25:48;;;;;;;243.18;51.22;;;;;;;7.35;100.00;100980.72;5000091;28;20054;-72
2022/12/21 03:28:24;;;;;;;267.52;51.58;;;;;;;7.44;100.00;100977.66;4999967;28;21494;-74
2022/12/21 03:30:53;;;;;;;268.58;53.10;;;;;;;7.45;100.00;100984.66;4998039;28;20076;-72
2022/12/21 03:33:24;;;;;;;247.10;52.90;;;;;;;7.52;100.00;100982.56;4990247;28;20085;-73
2022/12/21 03:35:54;;;;;;;256.85;51.53;;;;;;;7.44;100.00;100977.66;4989504;28;20798;-72
2022/12/21 03:38:36;;;;;;;276.13;54.95;;;;;;;7.50;100.00;100973.81;4998369;28;20209;-73
2022/12/21 03:41:08;;;;;;;250.25;56.40;;;;;;;7.50;100.00;100974.69;4996238;28;20058;-73
2022/12/21 03:43:35;;;;;;;324.40;59.60;;;;;;;7.45;100.00;100978.50;4982192;28;20662;-73
2022/12/21 03:46:04;;;;;;;284.25;55.10;;;;;;;7.41;100.00;100974.28;5000908;28;20103;-73
2022/12/21 03:48:40;;;;;;;277.63;54.47;;;;;;;7.43;100.00;100981.22;4994096;28;20412;-73
2022/12/21 03:51:18;;;;;;;267.92;52.10;;;;;;;7.42;100.00;100970.69;5001222;28;20380;-73
2022/12/21 03:54:00;;;;;;;285.27;57.05;;;;;;;7.42;100.00;100966.22;5001951;28;20584;-73
2022/12/21 03:56:30;;;;;;;294.67;57.28;;;;;;;7.49;100.00;100961.50;5003710;28;20112;-73
2022/12/21 03:58:57;;;;;;;277.38;53.17;;;;;;;7.43;100.00;100962.66;4998846;28;20568;-72
2022/12/21 04:01:45;;;;;;;265.05;52.42;;;;;;;7.41;100.00;100959.22;4984534;28;20629;-73
2022/12/21 04:04:23;;;;;;;288.63;52.72;;;;;;;7.41;100.00;100959.22;4993364;28;20152;-73
2022/12/21 04:06:52;;;;;;;258.75;53.67;;;;;;;7.48;100.00;100957.09;4999481;28;20045;-72
2022/12/21 04:09:18;;;;;;;263.60;50.70;;;;;;;7.53;100.00;100958.63;4983322;28;20061;-73
2022/12/21 04:14:28;;;;;;;263.02;54.83;;;;;;;7.58;100.00;100947.78;5002477;28;20926;-73
2022/12/21 04:16:53;;;;;;;279.75;56.88;;;;;;;7.53;100.00;100953.31;4987477;28;20038;-72
2022/12/21 04:22:03;;;;;;;300.30;58.90;;;;;;;7.47;100.00;100961.56;4996886;28;20276;-73
2022/12/21 04:29:56;;;;;;;310.83;62.00;;;;;;;7.44;100.00;100937.00;4997188;28;20061;-73
2022/12/21 04:32:22;;;;;;;278.70;60.92;;;;;;;7.45;100.00;100933.41;4997770;28;20045;-73
2022/12/21 04:34:47;;;;;;;303.60;62.25;;;;;;;7.48;100.00;100927.91;4992343;28;20077;-73
2022/12/21 04:37:31;;;;;;;331.63;62.80;;;;;;;7.46;100.00;100932.47;4984899;28;20057;-73
2022/12/21 04:39:58;;;;;;;254.77;56.75;;;;;;;7.48;100.00;100941.19;4994301;28;20356;-74
2022/12/21 04:42:24;;;;;;;289.63;61.63;;;;;;;7.44;100.00;100952.91;4999430;28;20092;-73
2022/12/21 04:44:50;;;;;;;308.63;61.83;;;;;;;7.43;100.00;100953.81;4999384;28;20054;-72
2022/12/21 04:47:16;;;;;;;275.60;58.08;;;;;;;7.48;100.00;100954.44;4997704;28;20038;-74
2022/12/21 04:49:41;;;;;;;260.98;54.35;;;;;;;7.43;100.00;100953.81;4986192;28;20502;-74
2022/12/21 04:52:07;;;;;;;241.77;56.10;;;;;;;7.41;100.00;100955.69;4997617;28;20407;-74
2022/12/21 04:54:32;;;;;;;299.80;55.30;;;;;;;7.36;100.00;100957.72;5006979;28;20042;-74
2022/12/21 04:56:58;;;;;;;277.67;58.08;;;;;;;7.41;100.00;100959.22;4997290;28;20073;-74
2022/12/21 04:59:24;;;;;;;263.33;54.03;;;;;;;7.42;100.00;100960.91;4995583;28;20061;-73
2022/12/21 05:01:49;;;;;;;265.77;52.13;;;;;;;7.34;100.00;100963.09;4967071;28;20050;-72
2022/12/21 05:04:15;;;;;;;313.90;57.92;;;;;;;7.39;100.00;100960.22;4990805;28;20049;-73
2022/12/21 05:06:40;;;;;;;246.15;52.05;;;;;;;7.44;100.00;100963.53;4991781;28;20561;-74
2022/12/21 05:09:06;;;;;;;295.30;54.95;;;;;;;7.49;100.00;100965.00;4993485;28;20053;-73
2022/12/21 05:11:32;;;;;;;287.92;59.55;;;;;;;7.45;100.00;100958.13;4993915;28;20053;-73
2022/12/21 05:13:58;;;;;;;300.45;58.28;;;;;;;7.44;100.00;100958.22;4990906;28;20416;-73
2022/12/21 05:16:24;;;;;;;286.73;58.10;;;;;;;7.42;100.00;100955.63;4984606;28;20049;-73
2022/12/21 05:18:50;;;;;;;298.60;57.60;;;;;;;7.48;100.00;100952.69;4979022;28;20052;-74
2022/12/21 05:21:16;;;;;;;296.08;58.08;;;;;;;7.48;100.00;100959.75;4982221;28;20045;-74
2022/12/21 05:23:42;;;;;;;288.25;57.67;;;;;;;7.49;100.00;100957.06;4996333;28;20049;-73
2022/12/21 05:26:09;;;;;;;358.33;63.10;;;;;;;7.41;100.00;100953.91;4984804;28;20033;-74
2022/12/21 05:28:35;;;;;;;338.10;64.18;;;;;;;7.42;100.00;100957.41;4998972;28;20161;-73
2022/12/21 05:31:03;;;;;;;354.40;63.42;;;;;;;7.43;100.00;100956.47;4984040;28;20056;-74
2022/12/21 05:33:28;;;;;;;315.50;57.55;;;;;;;7.40;100.00;100959.28;4986986;28;20042;-73
2022/12/21 05:35:53;;;;;;;328.58;58.35;;;;;;;7.41;100.00;100958.34;5000328;28;20954;-73
2022/12/21 05:38:19;;;;;;;305.02;58.03;;;;;;;7.36;100.00;100957.72;4997846;28;20054;-74
2022/12/21 05:40:48;;;;;;;313.42;60.22;;;;;;;7.41;100.00;100961.84;5002533;28;20046;-72
2022/12/21 05:43:14;;;;;;;311.05;60.35;;;;;;;7.41;100.00;100967.16;4990771;28;20411;-73
2022/12/21 05:45:40;;;;;;;341.92;59.30;;;;;;;7.40;100.00;100964.59;4999959;28;20041;-72
2022/12/21 05:48:05;;;;;;;340.13;64.90;;;;;;;7.37;100.00;100951.47;4984323;28;20048;-73
2022/12/21 05:50:30;;;;;;;327.17;69.15;;;;;;;7.30;100.00;100942.97;4991567;28;20053;-73
2022/12/21 05:52:56;;;;;;;359.15;76.38;;;;;;;7.26;100.00;100949.34;4980876;28;20053;-73
2022/12/21 05:55:21;;;;;;;407.10;81.13;;;;;;;7.12;100.00;100936.72;4984970;28;20050;-73
2022/12/21 05:57:47;;;;;;;331.80;71.57;;;;;;;7.11;100.00;100936.81;4989043;28;20050;-73
2022/12/21 06:00:13;;;;;;;357.33;70.78;;;;;;;7.00;100.00;100924.06;4994787;28;20125;-74
2022/12/21 06:02:39;;;;;;;277.02;63.63;;;;;;;6.99;100.00;100917.91;4989999;28;20559;-73
2022/12/21 06:05:04;;;;;;;280.95;59.83;;;;;;;6.92;100.00;100920.91;4980712;28;20046;-74
2022/12/21 06:07:30;;;;;;;286.60;57.08;;;;;;;6.90;100.00;100930.72;4981040;28;20775;-73
2022/12/21 06:09:55;;;;;;;232.20;52.78;;;;;;;6.93;100.00;100931.47;4994299;28;20038;-72
2022/12/21 06:12:21;;;;;;;227.73;49.50;;;;;;;6.83;100.00;100940.78;4992042;28;20049;-73
2022/12/21 06:14:46;;;;;;;283.17;52.50;;;;;;;6.83;100.00;100942.53;4973968;28;20568;-71
2022/12/21 06:17:12;;;;;;;188.13;43.63;;;;;;;6.81;100.00;100944.41;4994159;28;20050;-72
2022/12/21 06:19:37;;;;;;;235.48;47.85;;;;;;;6.67;100.00;100939.72;4981675;28;20043;-72
2022/12/21 06:22:03;;;;;;;186.63;43.67;;;;;;;6.64;100.00;100935.44;4994321;28;20061;-72
2022/12/21 06:24:28;;;;;;;210.20;44.88;;;;;;;6.63;100.00;100935.53;4986638;28;20117;-72
2022/12/21 06:26:54;;;;;;;163.93;39.33;;;;;;;6.62;100.00;100939.06;5004442;28;20045;-72
2022/12/21 06:29:19;;;;;;;190.77;41.92;;;;;;;6.55;100.00;100932.34;5012857;28;20475;-71
2022/12/21 06:31:45;;;;;;;165.63;40.00;;;;;;;6.67;100.00;100921.19;5004028;28;20037;-71
2022/12/21 06:34:11;;;;;;;149.70;37.92;;;;;;;6.65;100.00;100925.72;4981629;28;20050;-71
2022/12/21 06:36:36;;;;;;;143.75;34.67;;;;;;;6.64;100.00;100926.63;5002146;28;20272;-71
2022/12/21 06:39:02;;;;;;;151.52;37.55;;;;;;;6.57;100.00;100923.38;5006496;28;20037;-72
2022/12/21 06:41:27;;;;;;;167.35;36.35;;;;;;;6.63;100.00;100914.31;5014644;28;20049;-72
2022/12/21 06:43:53;;;;;;;142.93;34.67;;;;;;;6.62;100.00;100920.53;4993376;28;20672;-72
2022/12/21 06:46:19;;;;;;;144.43;33.03;;;;;;;6.54;100.00;100920.03;4996329;28;20836;-72
2022/12/21 06:48:45;;;;;;;139.18;32.22;;;;;;;6.56;100.00;100918.16;4990273;28;20118;-72
2022/12/21 06:51:17;;;;;;;136.98;31.10;;;;;;;6.56;100.00;100918.16;5001966;28;20069;-74
2022/12/21 06:53:44;;;;;;;115.28;30.63;;;;;;;6.56;100.00;100915.53;5003976;28;20561;-72
2022/12/21 06:56:12;;;;;;;145.82;34.15;;;;;;;6.53;100.00;100923.63;4971584;28;20046;-72
2022/12/21 06:58:38;;;;;;;130.20;31.17;;;;;;;6.47;100.00;100927.38;4993337;28;20042;-72
2022/12/21 07:01:12;;;;;;;111.63;30.98;;;;;;;6.41;100.00;100925.88;4995423;28;20514;-72
2022/12/21 07:03:39;;;;;;;135.65;31.08;;;;;;;6.32;100.00;100939.53;4998231;28;20050;-71
2022/12/21 07:06:05;;;;;;;118.65;28.63;;;;;;;6.38;100.00;100935.78;4988996;28;20053;-70
2022/12/21 07:08:31;;;;;;;127.88;30.08;;;;;;;6.28;100.00;100942.41;4987018;28;20074;-71
2022/12/21 07:11:01;;;;;;;123.28;29.38;;;;;;;6.26;100.00;100946.88;4996275;28;20115;-71
2022/12/21 07:13:28;;;;;;;92.78;27.45;;;;;;;6.31;100.00;100943.09;4992354;28;20056;-72
2022/12/21 07:15:55;;;;;;;120.07;28.75;;;;;;;6.39;100.00;100958.66;4998132;28;20052;-71
2022/12/21 07:18:20;;;;;;;120.45;28.27;;;;;;;6.36;100.00;100962.31;4998599;28;20583;-71
2022/12/21 07:20:46;;;;;;;106.53;28.13;;;;;;;6.30;100.00;100965.22;5001036;28;20134;-71
2022/12/21 07:23:12;;;;;;;99.50;27.67;;;;;;;6.37;100.00;100958.72;4998901;28;20049;-71
2022/12/21 07:25:37;;;;;;;118.82;28.63;;;;;;;6.36;100.00;100956.16;5002956;28;20061;-71
2022/12/21 07:28:03;;;;;;;106.65;26.80;;;;;;;6.42;100.00;100962.03;4998830;28;20122;-73
2022/12/21 07:30:28;;;;;;;111.95;30.50;;;;;;;6.42;100.00;100953.22;4982306;28;20668;-71
2022/12/21 07:32:54;;;;;;;115.95;29.48;;;;;;;6.43;100.00;100961.13;4993057;28;20177;-72
2022/12/21 07:35:24;;;;;;;110.80;29.55;;;;;;;6.45;100.00;100967.19;4993058;28;20576;-71
2022/12/21 07:37:50;;;;;;;129.80;33.45;;;;;;;6.49;100.00;100967.94;4992317;28;20064;-72
2022/12/21 07:40:17;;;;;;;127.00;29.92;;;;;;;6.48;100.00;100961.78;4986634;28;20501;-72
2022/12/21 07:42:43;;;;;;;115.55;31.92;;;;;;;6.49;100.00;100958.19;4995425;28;20137;-71
2022/12/21 07:45:39;;;;;;;118.18;31.50;;;;;;;6.51;100.00;100965.19;4984500;28;20518;-72
2022/12/21 07:48:07;;;;;;;124.90;31.40;;;;;;;6.55;100.00;100962.34;4995966;28;20078;-71
2022/12/21 07:50:32;;;;;;;118.60;31.98;;;;;;;6.48;100.00;100955.63;4997215;28;20050;-72
2022/12/21 07:52:58;;;;;;;130.02;34.47;;;;;;;6.53;100.00;100955.41;4994209;28;20064;-72
2022/12/21 07:55:25;;;;;;;130.32;34.60;;;;;;;6.57;100.00;100960.47;4992463;28;20049;-71
2022/12/21 07:57:51;;;;;;;129.20;32.67;;;;;;;6.69;100.00;100972.34;4990502;28;20066;-71
2022/12/21 08:00:17;;;;;;;106.45;30.70;;;;;;;6.66;100.00;100978.63;4989222;28;20089;-72
2022/12/21 08:02:43;;;;;;;118.90;32.50;;;;;;;6.52;100.00;100977.50;5007508;28;20056;-71
2022/12/21 08:05:08;;;;;;;121.70;32.88;;;;;;;6.57;100.00;100979.03;4978288;28;20054;-71
2022/12/21 08:07:34;;;;;;;121.78;31.40;;;;;;;6.56;100.00;100968.50;4990074;28;20054;-71
2022/12/21 08:09:59;;;;;;;140.38;34.00;;;;;;;6.59;100.00;100976.31;4987902;28;20168;-71
2022/12/21 08:12:25;;;;;;;126.18;31.00;;;;;;;6.53;100.00;100976.59;4996966;28;20112;-71
2022/12/21 08:14:50;;;;;;;126.00;33.03;;;;;;;6.65;100.00;100986.66;4978116;28;20038;-71
2022/12/21 08:17:16;;;;;;;127.13;34.10;;;;;;;6.64;100.00;100985.78;4988192;28;20049;-72
2022/12/21 08:19:42;;;;;;;132.13;36.40;;;;;;;6.65;100.00;100987.50;4985552;28;20058;-72
2022/12/21 08:22:07;;;;;;;143.98;43.88;;;;;;;6.78;100.00;100989.59;4990210;28;20124;-72
2022/12/21 08:24:33;;;;;;;157.05;44.80;;;;;;;6.81;100.00;100995.63;5006783;28;20057;-72
2022/12/21 08:26:58;;;;;;;143.07;46.53;;;;;;;6.85;100.00;100999.84;4982750;28;20057;-72
2022/12/21 08:29:24;;;;;;;146.15;50.75;;;;;;;6.90;100.00;101004.94;4980297;28;20046;-71
2022/12/21 08:31:49;;;;;;;139.63;46.58;;;;;;;6.93;100.00;100999.53;4984678;28;20054;-72
2022/12/21 08:34:15;;;;;;;126.25;43.67;;;;;;;6.91;100.00;100999.56;5004648;28;20397;-71
2022/12/21 08:36:41;;;;;;;121.68;39.65;;;;;;;6.94;100.00;100996.78;4992983;28;20050;-71
2022/12/21 08:39:07;;;;;;;130.30;39.28;;;;;;;6.96;100.00;100996.72;5002882;28;20061;-72
2022/12/21 08:41:32;;;;;;;125.00;37.88;;;;;;;6.97;100.00;100998.44;4990762;28;20062;-72
2022/12/21 08:43:58;;;;;;;136.07;38.15;;;;;;;6.96;100.00;100996.72;4989552;28;20865;-72
2022/12/21 08:46:23;;;;;;;109.20;38.35;;;;;;;6.93;100.00;101000.38;4985988;28;20037;-72
2022/12/21 08:48:49;;;;;;;126.18;35.85;;;;;;;6.87;100.00;100994.47;4981493;28;20057;-72
2022/12/21 08:51:15;;;;;;;116.32;38.65;;;;;;;6.86;100.00;101003.38;5009306;28;20046;-72
2022/12/21 08:53:41;;;;;;;129.32;38.47;;;;;;;6.77;100.00;100994.03;4999024;28;20063;-71
2022/12/21 08:56:07;;;;;;;115.68;39.28;;;;;;;6.78;100.00;100997.53;4975724;28;20163;-71
2022/12/21 08:58:34;;;;;;;119.93;37.35;;;;;;;6.70;100.00;100989.94;4997110;28;20134;-72
2022/12/21 09:01:00;;;;;;;134.60;39.70;;;;;;;6.60;100.00;100991.28;4999379;28;20054;-72
2022/12/21 09:03:26;;;;;;;145.05;40.00;;;;;;;6.61;100.00;100983.25;4992907;28;20068;-70
2022/12/21 09:05:57;;;;;;;114.07;38.28;;;;;;;6.62;100.00;100984.13;4992249;28;20042;-71
2022/12/21 09:08:23;;;;;;;114.85;38.78;;;;;;;6.65;100.00;100978.69;4981065;28;20056;-71
2022/12/21 09:10:49;;;;;;;109.18;37.60;;;;;;;6.55;100.00;100974.75;4991545;28;20533;-72
2022/12/21 09:13:15;;;;;;;101.35;35.78;;;;;;;6.70;100.00;100985.50;5006259;28;20054;-71
2022/12/21 09:15:41;;;;;;;110.88;35.88;;;;;;;6.78;100.00;100994.88;5008124;28;20132;-71
2022/12/21 09:18:08;;;;;;;101.93;35.22;;;;;;;7.07;100.00;101005.03;4987878;28;20078;-72
2022/12/21 09:20:33;;;;;;;100.25;33.88;;;;;;;7.23;100.00;101000.75;4977611;28;20140;-71
2022/12/21 09:22:59;;;;;;;104.60;35.58;;;;;;;7.27;100.00;101004.94;5000350;28;20132;-72
2022/12/21 09:25:24;;;;;;;106.07;34.17;;;;;;;7.44;100.00;101011.28;5003351;28;20048;-72
2022/12/21 09:27:50;;;;;;;111.45;34.95;;;;;;;7.40;100.00;100999.09;4992671;28;20046;-71
2022/12/21 09:30:15;;;;;;;96.88;31.38;;;;;;;7.33;100.00;101001.19;4999295;28;20044;-71
2022/12/21 09:32:41;;;;;;;91.68;32.85;;;;;;;7.38;100.00;101003.59;5003556;28;20128;-72
2022/12/21 09:35:06;;;;;;;108.50;32.45;;;;;;;7.48;100.00;101012.81;4991429;28;20095;-71
2022/12/21 09:37:32;;;;;;;95.57;33.47;;;;;;;7.45;100.00;101007.69;5003991;28;20104;-72
2022/12/21 09:39:57;;;;;;;96.03;30.38;;;;;;;7.50;100.00;101006.53;5007098;28;20049;-72
2022/12/21 09:42:44;;;;;;;91.28;29.75;;;;;;;7.46;100.00;101007.59;4998161;28;20057;-72
2022/12/21 09:45:25;;;;;;;83.60;32.25;;;;;;;7.59;100.00;101007.88;4983661;28;21050;-71
2022/12/21 09:47:57;;;;;;;77.50;28.77;;;;;;;7.63;100.00;100990.00;5000361;28;20057;-71
2022/12/21 09:50:31;;;;;;;90.38;30.02;;;;;;;7.87;100.00;100990.59;4982664;28;20042;-72
2022/12/21 09:53:12;;;;;;;77.90;27.67;;;;;;;7.94;100.00;100979.59;5002334;28;20491;-72
2022/12/21 09:55:45;;;;;;;88.40;29.70;;;;;;;7.96;100.00;100983.03;4978939;28;20098;-71
2022/12/21 09:58:15;;;;;;;86.40;29.13;;;;;;;7.98;100.00;100980.28;4999611;28;20073;-71
2022/12/21 10:00:45;;;;;;;79.75;29.17;;;;;;;8.13;100.00;100976.84;4994598;28;20097;-71
2022/12/21 10:03:19;;;;;;;76.53;28.83;;;;;;;8.22;100.00;100979.03;4995679;28;20071;-71
2022/12/21 10:05:54;;;;;;;88.30;27.27;;;;;;;8.29;100.00;100991.09;4989266;28;20051;-71
2022/12/21 10:08:44;;;;;;;95.15;30.58;;;;;;;8.06;100.00;100994.06;4984344;28;20053;-71
2022/12/21 10:11:54;;;;;;;80.70;29.40;;;;;;;8.09;100.00;100987.75;4993224;28;20038;-71
2022/12/21 10:14:35;;;;;;;79.65;29.10;;;;;;;8.10;100.00;100989.44;4976509;28;20058;-71
2022/12/21 10:17:37;;;;;;;80.28;28.80;;;;;;;8.20;100.00;100988.03;5002152;28;20057;-72
2022/12/21 10:20:23;;;;;;;81.55;31.75;;;;;;;8.13;100.00;100984.81;5010469;28;20458;-71
2022/12/21 10:22:52;;;;;;;82.93;30.70;;;;;;;8.16;100.00;100983.81;4985580;28;20837;-70
2022/12/21 10:25:25;;;;;;;79.53;32.00;;;;;;;8.16;100.00;100976.72;5006280;28;20136;-72
2022/12/21 10:28:00;;;;;;;;;;;;;;;8.11;100.00;100977.88;4986684;28;20050;-71
2022/12/21 10:30:25;;;;;;;86.00;32.13;;;;;;;8.05;100.00;100974.59;5014257;28;19917;-72
2022/12/21 10:32:51;;;;;;;87.70;33.60;;;;;;;8.01;100.00;100974.84;4985066;28;20069;-71
2022/12/21 10:35:27;;;;;;;80.97;32.95;;;;;;;8.01;100.00;100975.69;4997861;28;20065;-71
2022/12/21 10:37:54;;;;;;;91.15;32.75;;;;;;;8.03;100.00;100980.91;4993408;28;20061;-73
2022/12/21 10:40:25;;;;;;;80.00;33.50;;;;;;;8.01;100.00;100973.03;4990377;28;20049;-71
2022/12/21 10:42:52;;;;;;;89.30;33.50;;;;;;;7.99;100.00;100969.59;5003301;28;20466;-71
2022/12/21 10:45:20;;;;;;;95.35;33.55;;;;;;;7.96;100.00;100968.91;4981702;28;20098;-71
2022/12/21 10:47:46;;;;;;;74.50;29.17;;;;;;;7.96;100.00;100964.44;4993447;28;20042;-71
2022/12/21 10:50:26;;;;;;;82.88;31.02;;;;;;;8.07;100.00;100968.34;4990179;28;20894;-70
2022/12/21 10:52:57;;;;;;;86.95;31.25;;;;;;;8.08;100.00;100967.41;4998242;28;20054;-71
2022/12/21 10:55:22;;;;;;;72.20;29.98;;;;;;;8.04;100.00;100964.94;5010353;28;20121;-71
2022/12/21 10:57:49;;;;;;;70.18;27.75;;;;;;;8.09;100.00;100970.00;5010082;28;21927;-70
2022/12/21 11:00:27;;;;;;;84.30;29.15;;;;;;;8.11;100.00;100965.47;5000976;28;20856;-70
2022/12/21 11:02:56;;;;;;;79.50;29.67;;;;;;;8.06;100.00;100967.50;5010256;28;20052;-72
2022/12/21 11:05:37;;;;;;;73.18;28.58;;;;;;;8.17;100.00;100967.78;5008085;28;20046;-72
2022/12/21 11:08:14;;;;;;;82.07;31.23;;;;;;;8.21;100.00;100963.19;5003751;28;20057;-72
2022/12/21 11:10:42;;;;;;;66.68;28.40;;;;;;;8.18;100.00;100958.91;4997771;28;20069;-70
2022/12/21 11:13:11;;;;;;;75.20;29.10;;;;;;;8.26;100.00;100951.38;4989963;28;20123;-70
2022/12/21 11:15:37;;;;;;;69.82;28.75;;;;;;;8.19;100.00;100951.81;4986910;28;20057;-71
2022/12/21 11:18:03;;;;;;;67.35;30.92;;;;;;;8.23;100.00;100956.88;5000313;28;20042;-71
2022/12/21 11:20:29;;;;;;;71.13;30.58;;;;;;;8.28;100.00;100945.97;5006390;28;20049;-71
2022/12/21 11:22:58;;;;;;;87.60;32.78;;;;;;;8.36;100.00;100951.81;5009450;28;20537;-72
2022/12/21 11:25:26;;;;;;;80.95;33.80;;;;;;;8.42;100.00;100954.13;4995259;28;20045;-70
2022/12/21 11:27:59;;;;;;;82.90;31.45;;;;;;;8.59;100.00;100952.41;5004571;28;20084;-72
2022/12/21 11:30:25;;;;;;;;;;;;;;;8.61;100.00;100951.38;5006540;28;20083;-70